Time;durP1;ratioP1;P1;durP2;ratioP2;P2;SDS_P1;SDS_P2;PMS_P1;PMS_P2;Temp;Humidity;BMP_temperature;BMP_pressure;BME280_temperature;BME280_humidity;BME280_pressure;Samples;Min_cycle;Max_cycle;Signal;HPM_P1;HPM_P2
2023/12/25 00:00:05;;;;;;;0.50;0.50;;;;;;;8.86;70.41;96493.13;29396;253;63024;-58
2023/12/25 00:00:36;;;;;;;0.50;0.50;;;;;;;8.87;70.10;96491.25;29396;251;63005;-57
2023/12/25 00:01:07;;;;;;;0.50;0.50;;;;;;;8.84;70.53;96481.81;29396;249;63013;-55
2023/12/25 00:01:40;;;;;;;0.65;0.65;;;;;;;8.82;70.39;96486.69;29396;258;63005;-59
2023/12/25 00:02:13;;;;;;;0.60;0.60;;;;;;;8.85;69.96;96488.00;29396;237;63009;-57
2023/12/25 00:02:44;;;;;;;0.50;0.50;;;;;;;8.93;69.36;96485.47;29395;235;64009;-58
2023/12/25 00:03:17;;;;;;;0.50;0.50;;;;;;;8.97;69.14;96491.09;29396;206;63009;-58
2023/12/25 00:03:48;;;;;;;0.98;0.98;;;;;;;9.01;69.34;96492.09;29396;272;63004;-63
2023/12/25 00:04:20;;;;;;;0.50;0.50;;;;;;;9.09;68.41;96494.16;29396;254;63009;-57
2023/12/25 00:04:51;;;;;;;0.50;0.50;;;;;;;9.03;69.19;96504.25;29396;253;63004;-59
2023/12/25 00:05:22;;;;;;;0.50;0.50;;;;;;;8.99;69.37;96500.53;29396;213;63018;-57
2023/12/25 00:05:54;;;;;;;0.52;0.52;;;;;;;9.00;68.95;96501.34;29395;226;64008;-62
2023/12/25 00:06:26;;;;;;;0.50;0.50;;;;;;;9.06;68.36;96502.84;29396;454;63009;-59
2023/12/25 00:06:58;;;;;;;0.50;0.50;;;;;;;9.08;68.17;96487.13;29396;199;63005;-58
2023/12/25 00:07:29;;;;;;;0.50;0.50;;;;;;;9.02;68.71;96494.53;29396;223;63009;-58
2023/12/25 00:08:00;;;;;;;0.50;0.50;;;;;;;8.95;69.25;96494.09;29396;293;63005;-58
2023/12/25 00:08:32;;;;;;;0.50;0.50;;;;;;;8.87;69.62;96494.75;29396;199;63009;-57
2023/12/25 00:09:03;;;;;;;0.50;0.50;;;;;;;8.82;69.98;96505.63;29396;259;63005;-58
2023/12/25 00:09:34;;;;;;;0.50;0.50;;;;;;;8.77;70.33;96491.38;29396;251;63009;-60
2023/12/25 00:10:08;;;;;;;0.50;0.50;;;;;;;8.73;70.30;96502.75;29396;225;63005;-57
2023/12/25 00:10:39;;;;;;;0.50;0.50;;;;;;;8.70;70.70;96503.34;29396;245;63021;-58
2023/12/25 00:11:12;;;;;;;0.50;0.50;;;;;;;8.67;70.85;96493.09;29395;247;64009;-60
2023/12/25 00:11:44;;;;;;;0.50;0.50;;;;;;;8.69;71.28;96509.03;29396;260;63025;-67
2023/12/25 00:12:18;;;;;;;0.80;0.80;;;;;;;8.67;70.80;96495.81;29396;246;63004;-56
2023/12/25 00:12:50;;;;;;;0.55;0.55;;;;;;;8.66;70.72;96502.31;29396;270;63016;-58
2023/12/25 00:13:21;;;;;;;0.50;0.50;;;;;;;8.72;70.62;96493.03;29396;277;63004;-58
2023/12/25 00:13:54;;;;;;;0.50;0.50;;;;;;;8.76;70.59;96490.56;29396;242;63009;-66
2023/12/25 00:14:27;;;;;;;0.70;0.70;;;;;;;8.81;69.57;96508.63;29396;206;63009;-57
2023/12/25 00:14:58;;;;;;;0.50;0.50;;;;;;;8.79;69.89;96489.16;29396;206;63009;-58
2023/12/25 00:15:29;;;;;;;0.60;0.60;;;;;;;8.77;69.93;96496.78;29396;262;63005;-58
2023/12/25 00:16:00;;;;;;;0.50;0.50;;;;;;;8.78;69.82;96487.56;29396;228;63017;-57
2023/12/25 00:16:32;;;;;;;0.50;0.50;;;;;;;8.76;69.84;96500.56;29395;266;64009;-58
2023/12/25 00:17:03;;;;;;;0.50;0.50;;;;;;;8.73;70.46;96502.75;29395;225;64013;-61
2023/12/25 00:17:34;;;;;;;0.50;0.50;;;;;;;8.76;70.14;96495.16;29396;196;63005;-58
2023/12/25 00:18:06;;;;;;;0.57;0.57;;;;;;;8.76;70.17;96501.38;29396;228;63009;-59
2023/12/25 00:18:37;;;;;;;0.50;0.50;;;;;;;8.71;69.87;96494.13;29396;333;63004;-57
2023/12/25 00:19:10;;;;;;;0.50;0.50;;;;;;;8.68;70.20;96497.41;29396;215;63009;-60
2023/12/25 00:19:41;;;;;;;0.52;0.52;;;;;;;8.68;70.34;96502.81;29396;276;63004;-58
2023/12/25 00:20:13;;;;;;;0.50;0.50;;;;;;;8.73;69.59;96491.12;29396;212;63009;-57
2023/12/25 00:20:44;;;;;;;0.50;0.50;;;;;;;8.72;70.02;96490.34;29396;228;63004;-58
2023/12/25 00:21:15;;;;;;;0.50;0.50;;;;;;;8.72;69.60;96484.91;29396;334;63009;-58
2023/12/25 00:21:46;;;;;;;0.60;0.60;;;;;;;8.69;69.58;96496.31;29396;255;63005;-57
2023/12/25 00:22:20;;;;;;;0.60;0.60;;;;;;;8.78;68.88;96487.56;29395;214;64014;-58
2023/12/25 00:22:52;;;;;;;0.50;0.50;;;;;;;8.80;68.86;96479.97;29395;197;64009;-58
2023/12/25 00:23:23;;;;;;;0.50;0.50;;;;;;;8.83;68.97;96484.78;29395;400;64013;-57
2023/12/25 00:23:54;;;;;;;0.50;0.50;;;;;;;8.81;68.62;96478.88;29396;247;63000;-60
2023/12/25 00:24:26;;;;;;;0.50;0.50;;;;;;;8.79;69.23;96489.16;29396;221;63009;-57
2023/12/25 00:25:03;;;;;;;0.50;0.50;;;;;;;8.77;69.08;96486.75;29396;267;63005;-56
2023/12/25 00:25:34;;;;;;;0.50;0.50;;;;;;;8.82;68.26;96477.78;29396;271;63009;-56
2023/12/25 00:26:06;;;;;;;0.60;0.60;;;;;;;8.83;68.50;96490.22;29395;258;64004;-58
2023/12/25 00:26:40;;;;;;;0.50;0.50;;;;;;;8.87;68.07;96475.00;29396;274;63009;-59
2023/12/25 00:27:11;;;;;;;0.60;0.60;;;;;;;8.91;67.81;96490.38;29396;197;63004;-66
2023/12/25 00:27:42;;;;;;;0.60;0.60;;;;;;;8.93;67.84;96477.34;29396;202;63009;-58
2023/12/25 00:28:14;;;;;;;0.60;0.60;;;;;;;8.96;67.47;96473.25;29396;245;63004;-59
2023/12/25 00:28:45;;;;;;;0.50;0.50;;;;;;;8.97;67.45;96464.03;29395;197;64014;-59
2023/12/25 00:29:20;;;;;;;0.50;0.50;;;;;;;8.93;67.44;96492.78;29395;241;64009;-61
2023/12/25 00:29:52;;;;;;;0.50;0.50;;;;;;;8.94;67.71;96484.38;29395;211;64014;-59
2023/12/25 00:30:23;;;;;;;0.52;0.52;;;;;;;8.88;68.24;96480.13;29396;217;63005;-59
2023/12/25 00:30:55;;;;;;;0.50;0.50;;;;;;;8.85;68.58;96474.50;29396;256;63009;-58
2023/12/25 00:31:26;;;;;;;0.50;0.50;;;;;;;8.85;68.17;96482.59;29396;211;63005;-60
2023/12/25 00:31:58;;;;;;;0.50;0.50;;;;;;;8.82;68.21;96483.19;29396;259;63009;-59
2023/12/25 00:32:29;;;;;;;0.50;0.50;;;;;;;8.81;68.22;96495.09;29396;198;63017;-64
2023/12/25 00:33:01;;;;;;;0.50;0.50;;;;;;;8.81;68.29;96487.78;29396;212;63009;-59
2023/12/25 00:33:32;;;;;;;0.50;0.50;;;;;;;8.82;68.48;96484.00;29396;211;63004;-60
2023/12/25 00:34:03;;;;;;;0.50;0.50;;;;;;;8.80;68.59;96488.09;29397;204;63015;-60
2023/12/25 00:34:35;;;;;;;0.50;0.50;;;;;;;8.78;68.56;96485.66;29397;203;63004;-59
2023/12/25 00:35:06;;;;;;;0.50;0.50;;;;;;;8.73;68.78;96480.31;29396;263;64013;-59
2023/12/25 00:35:38;;;;;;;0.50;0.50;;;;;;;8.70;68.98;96489.81;29397;339;63004;-58
2023/12/25 00:36:11;;;;;;;0.60;0.60;;;;;;;8.77;68.15;96480.53;29397;221;63008;-58
2023/12/25 00:36:42;;;;;;;0.60;0.60;;;;;;;8.79;68.24;96484.56;29397;242;63005;-57
2023/12/25 00:37:13;;;;;;;0.60;0.60;;;;;;;8.83;67.71;96482.09;29397;223;63009;-59
2023/12/25 00:37:44;;;;;;;0.50;0.50;;;;;;;8.81;67.27;96482.38;29397;252;63005;-65
2023/12/25 00:38:15;;;;;;;0.50;0.50;;;;;;;8.85;67.33;96478.00;29397;233;63009;-58
2023/12/25 00:38:47;;;;;;;0.50;0.50;;;;;;;8.89;67.10;96480.94;29397;242;63005;-58
2023/12/25 00:39:18;;;;;;;0.50;0.50;;;;;;;8.90;67.00;96486.06;29397;254;63009;-62
2023/12/25 00:39:49;;;;;;;0.50;0.50;;;;;;;8.93;66.46;96479.25;29396;455;64005;-61
2023/12/25 00:40:20;;;;;;;0.50;0.50;;;;;;;8.89;66.97;96484.44;29396;222;64013;-58
2023/12/25 00:40:52;;;;;;;0.50;0.50;;;;;;;8.87;67.18;96493.94;29397;274;63004;-57
2023/12/25 00:41:30;;;;;;;0.50;0.50;;;;;;;8.87;67.35;96491.25;29396;333;64013;-63
2023/12/25 00:42:01;;;;;;;0.50;0.50;;;;;;;8.86;67.34;96471.50;29397;204;63004;-56
2023/12/25 00:42:33;;;;;;;0.50;0.50;;;;;;;8.90;66.98;96490.66;29397;204;63009;-59
2023/12/25 00:43:04;;;;;;;0.50;0.50;;;;;;;8.89;66.96;96489.03;29397;224;63004;-57
2023/12/25 00:43:36;;;;;;;0.50;0.50;;;;;;;8.86;67.57;96485.03;29397;271;63008;-57
2023/12/25 00:44:07;;;;;;;0.50;0.50;;;;;;;8.80;67.79;96493.50;29397;227;63005;-58
2023/12/25 00:44:39;;;;;;;0.50;0.50;;;;;;;8.77;67.94;96497.56;29397;244;63009;-60
2023/12/25 00:45:10;;;;;;;0.50;0.50;;;;;;;8.79;67.57;96494.59;29397;230;63010;-61
2023/12/25 00:45:41;;;;;;;0.50;0.50;;;;;;;8.74;67.50;96490.84;29397;244;63009;-58
2023/12/25 00:46:12;;;;;;;0.50;0.50;;;;;;;8.70;68.07;96500.63;29397;251;63005;-59
2023/12/25 00:46:44;;;;;;;0.52;0.52;;;;;;;8.74;67.64;96509.78;29395;405;64013;-62
2023/12/25 00:47:15;;;;;;;0.60;0.60;;;;;;;8.79;67.04;96502.69;29397;252;63005;-60
2023/12/25 00:47:46;;;;;;;0.50;0.50;;;;;;;8.78;67.33;96501.09;29396;220;63009;-60
2023/12/25 00:48:17;;;;;;;0.50;0.50;;;;;;;8.76;67.82;96489.75;29396;458;63004;-58
2023/12/25 00:48:48;;;;;;;0.50;0.50;;;;;;;8.77;67.33;96480.53;29396;206;63009;-60
2023/12/25 00:49:20;;;;;;;0.50;0.50;;;;;;;8.73;67.32;96496.53;29396;458;63004;-59
2023/12/25 00:49:52;;;;;;;0.50;0.50;;;;;;;8.77;67.21;96502.19;29396;249;63009;-58
2023/12/25 00:50:23;;;;;;;0.50;0.50;;;;;;;8.74;67.77;96501.66;29396;226;63010;-58
2023/12/25 00:50:54;;;;;;;0.50;0.50;;;;;;;8.74;67.44;96496.25;29396;207;63008;-58
2023/12/25 00:51:25;;;;;;;0.50;0.50;;;;;;;8.71;67.72;96506.84;29396;274;63005;-58
2023/12/25 00:51:56;;;;;;;0.50;0.50;;;;;;;8.67;68.06;96498.50;29395;212;64014;-58
2023/12/25 00:52:28;;;;;;;0.50;0.50;;;;;;;8.64;68.07;96493.72;29396;276;63005;-60
2023/12/25 00:52:59;;;;;;;0.50;0.50;;;;;;;8.63;68.64;96502.91;29396;269;63012;-59
2023/12/25 00:53:30;;;;;;;0.50;0.50;;;;;;;8.63;68.36;96516.44;29396;202;63005;-61
2023/12/25 00:54:01;;;;;;;0.60;0.60;;;;;;;8.68;68.14;96510.94;29396;273;63009;-62
2023/12/25 00:54:36;;;;;;;0.50;0.50;;;;;;;8.74;67.27;96498.97;29396;238;63014;-61
2023/12/25 00:55:08;;;;;;;0.88;0.88;;;;;;;8.77;67.22;96497.56;29396;238;63016;-57
2023/12/25 00:55:39;;;;;;;0.60;0.60;;;;;;;8.76;67.25;96503.28;29395;240;64004;-57
2023/12/25 00:56:11;;;;;;;0.50;0.50;;;;;;;8.74;67.67;96506.28;29396;197;63009;-62
2023/12/25 00:56:42;;;;;;;0.50;0.50;;;;;;;8.77;66.79;96486.75;29396;275;63015;-58
2023/12/25 00:57:14;;;;;;;0.57;0.57;;;;;;;8.74;67.27;96498.16;29395;232;64013;-57
2023/12/25 00:57:46;;;;;;;0.50;0.50;;;;;;;8.71;67.68;96496.03;29395;264;64008;-59
2023/12/25 00:58:19;;;;;;;0.50;0.50;;;;;;;8.74;67.23;96498.97;29396;225;63008;-60
2023/12/25 00:58:50;;;;;;;0.60;0.60;;;;;;;8.76;67.27;96495.16;29396;330;63005;-58
2023/12/25 00:59:22;;;;;;;0.50;0.50;;;;;;;8.70;67.21;96508.75;29396;238;63009;-58
2023/12/25 00:59:53;;;;;;;0.50;0.50;;;;;;;8.68;67.54;96502.81;29396;278;63005;-58
2023/12/25 01:00:24;;;;;;;0.50;0.50;;;;;;;8.68;67.82;96505.53;29396;227;63020;-57
2023/12/25 01:00:55;;;;;;;0.50;0.50;;;;;;;8.67;67.68;96503.09;29396;199;63005;-62
2023/12/25 01:01:27;;;;;;;0.50;0.50;;;;;;;8.71;67.75;96493.31;29396;277;63009;-60
2023/12/25 01:01:58;;;;;;;0.50;0.50;;;;;;;8.80;66.69;96496.19;29396;264;63005;-57
2023/12/25 01:02:29;;;;;;;0.50;0.50;;;;;;;8.80;66.68;96505.13;29396;243;63009;-57
2023/12/25 01:03:00;;;;;;;0.50;0.50;;;;;;;8.74;67.16;96498.97;29395;288;64009;-57
2023/12/25 01:03:32;;;;;;;1.12;1.05;;;;;;;8.73;67.45;96502.75;29395;208;64013;-59
2023/12/25 01:04:04;;;;;;;0.50;0.50;;;;;;;8.78;66.96;96492.97;29396;248;63004;-61
2023/12/25 01:04:35;;;;;;;0.50;0.50;;;;;;;8.74;66.96;96498.16;29396;233;63009;-57
2023/12/25 01:05:09;;;;;;;0.50;0.50;;;;;;;8.76;67.17;96489.75;29396;272;63004;-60
2023/12/25 01:05:40;;;;;;;0.50;0.50;;;;;;;8.78;66.70;96487.56;29396;232;63005;-67
2023/12/25 01:06:11;;;;;;;0.50;0.50;;;;;;;8.83;65.93;96492.91;29396;206;63008;-59
2023/12/25 01:06:43;;;;;;;0.50;0.50;;;;;;;8.79;66.50;96484.56;29396;203;63009;-57
2023/12/25 01:07:14;;;;;;;0.50;0.50;;;;;;;8.79;66.88;96494.59;29396;258;63005;-57
2023/12/25 01:07:45;;;;;;;0.50;0.50;;;;;;;8.74;67.18;96493.56;29396;251;63018;-56
2023/12/25 01:08:16;;;;;;;0.50;0.50;;;;;;;8.70;67.14;96497.94;29395;248;64021;-57
2023/12/25 01:08:48;;;;;;;0.50;0.50;;;;;;;8.69;67.20;96501.72;29396;242;63009;-56
2023/12/25 01:09:23;;;;;;;0.60;0.60;;;;;;;8.70;67.48;96507.94;29396;212;63000;-60
2023/12/25 01:09:54;;;;;;;0.57;0.57;;;;;;;8.72;66.68;96489.53;29396;234;63009;-56
2023/12/25 01:10:25;;;;;;;0.50;0.50;;;;;;;8.73;67.05;96519.00;29396;202;63004;-61
2023/12/25 01:10:57;;;;;;;0.70;0.70;;;;;;;8.80;66.48;96490.78;29396;247;63027;-65
2023/12/25 01:11:28;;;;;;;0.50;0.50;;;;;;;8.79;66.20;96500.00;29396;205;63004;-58
2023/12/25 01:11:59;;;;;;;0.52;0.52;;;;;;;8.82;66.20;96502.13;29396;203;63009;-58
2023/12/25 01:12:31;;;;;;;0.60;0.60;;;;;;;8.81;66.18;96492.41;29395;219;64008;-56
2023/12/25 01:13:03;;;;;;;0.60;0.60;;;;;;;8.78;66.29;96498.38;29396;234;63008;-56
2023/12/25 01:13:34;;;;;;;0.60;0.60;;;;;;;8.75;66.64;96494.34;29396;227;63005;-57
2023/12/25 01:14:05;;;;;;;0.50;0.50;;;;;;;8.71;66.55;96488.72;29396;204;63009;-56
2023/12/25 01:14:37;;;;;;;0.60;0.60;;;;;;;8.70;66.92;96487.09;29395;257;64009;-57
2023/12/25 01:15:09;;;;;;;0.55;0.55;;;;;;;8.66;67.17;96499.59;29396;202;63009;-57
2023/12/25 01:15:40;;;;;;;0.50;0.50;;;;;;;8.69;66.93;96488.22;29396;256;63009;-57
2023/12/25 01:16:11;;;;;;;0.60;0.60;;;;;;;8.69;66.43;96484.69;29396;210;63009;-57
2023/12/25 01:16:42;;;;;;;0.50;0.50;;;;;;;8.67;66.63;96479.56;29396;248;63005;-58
2023/12/25 01:17:14;;;;;;;0.50;0.50;;;;;;;8.69;66.77;96485.50;29396;198;63009;-58
2023/12/25 01:17:46;;;;;;;0.50;0.50;;;;;;;8.66;66.68;96477.97;29396;197;63004;-58
2023/12/25 01:18:17;;;;;;;0.50;0.50;;;;;;;8.64;67.22;96493.72;29396;332;63009;-57
2023/12/25 01:18:48;;;;;;;0.50;0.50;;;;;;;8.65;67.24;96481.78;29396;377;63004;-58
2023/12/25 01:19:19;;;;;;;0.47;0.47;;;;;;;8.68;67.18;96494.72;29396;196;63009;-58
2023/12/25 01:19:51;;;;;;;0.50;0.50;;;;;;;8.64;67.16;96488.28;29395;218;64008;-59
2023/12/25 01:20:22;;;;;;;0.50;0.50;;;;;;;8.61;67.37;96488.06;29396;209;63008;-58
2023/12/25 01:20:54;;;;;;;0.50;0.50;;;;;;;8.64;67.13;96493.72;29396;251;63008;-60
2023/12/25 01:21:25;;;;;;;0.68;0.68;;;;;;;8.67;66.56;96482.28;29396;246;63009;-58
2023/12/25 01:21:56;;;;;;;0.60;0.60;;;;;;;8.66;66.62;96488.78;29396;252;63005;-57
2023/12/25 01:22:27;;;;;;;0.50;0.50;;;;;;;8.61;66.67;96488.88;29396;208;63009;-56
2023/12/25 01:22:59;;;;;;;0.50;0.50;;;;;;;8.62;66.85;96485.06;29396;247;63009;-57
2023/12/25 01:23:30;;;;;;;0.50;0.50;;;;;;;8.61;66.85;96488.88;29396;280;63009;-56
2023/12/25 01:24:02;;;;;;;0.50;0.50;;;;;;;8.61;66.94;96488.88;29396;203;63005;-63
2023/12/25 01:24:33;;;;;;;0.50;0.50;;;;;;;8.62;66.37;96490.47;29396;214;63009;-56
2023/12/25 01:25:07;;;;;;;0.50;0.50;;;;;;;8.61;66.56;96486.16;29395;210;64009;-56
2023/12/25 01:25:38;;;;;;;0.50;0.50;;;;;;;8.60;66.63;96489.97;29396;260;63009;-69
2023/12/25 01:26:09;;;;;;;0.50;0.50;;;;;;;8.59;66.30;96485.66;29396;254;63004;-56
2023/12/25 01:26:43;;;;;;;1.05;1.05;;;;;;;8.57;66.84;96487.03;29395;202;64013;-56
2023/12/25 01:27:14;;;;;;;0.60;0.60;;;;;;;8.53;66.85;96497.63;29396;224;63004;-58
2023/12/25 01:27:46;;;;;;;0.50;0.50;;;;;;;8.54;67.02;96491.12;29396;236;63012;-57
2023/12/25 01:28:18;;;;;;;0.52;0.52;;;;;;;8.53;67.15;96497.63;29396;231;63005;-55
2023/12/25 01:28:49;;;;;;;0.50;0.50;;;;;;;8.49;67.37;96491.19;29396;230;63009;-57
2023/12/25 01:29:21;;;;;;;0.60;0.60;;;;;;;8.48;67.75;96489.56;29397;267;63005;-56
2023/12/25 01:29:52;;;;;;;0.50;0.50;;;;;;;8.45;67.90;96489.34;29396;198;63009;-57
2023/12/25 01:30:23;;;;;;;0.50;0.50;;;;;;;8.46;67.76;96490.94;29396;256;63005;-56
2023/12/25 01:30:54;;;;;;;0.50;0.50;;;;;;;8.43;67.88;96492.31;29396;263;63009;-57
2023/12/25 01:31:26;;;;;;;0.50;0.50;;;;;;;8.43;67.82;96480.72;29396;251;63005;-59
2023/12/25 01:31:59;;;;;;;0.50;0.50;;;;;;;8.40;67.77;96482.88;29395;209;64013;-57
2023/12/25 01:32:30;;;;;;;0.60;0.60;;;;;;;8.38;67.91;96476.16;29396;344;63004;-56
2023/12/25 01:33:01;;;;;;;0.50;0.50;;;;;;;8.40;67.96;96487.50;29396;269;63009;-57
2023/12/25 01:33:32;;;;;;;0.50;0.50;;;;;;;8.40;67.76;96484.78;29396;227;63004;-57
2023/12/25 01:34:04;;;;;;;0.50;0.50;;;;;;;8.43;67.52;96473.41;29396;210;63009;-57
2023/12/25 01:34:36;;;;;;;0.50;0.50;;;;;;;8.46;67.09;96469.31;29395;211;64004;-59
2023/12/25 01:35:08;;;;;;;0.50;0.50;;;;;;;8.56;66.12;96466.50;29396;235;63008;-57
2023/12/25 01:35:39;;;;;;;0.60;0.60;;;;;;;8.62;66.19;96473.44;29396;200;63004;-60
2023/12/25 01:37:18;;;;;;;0.56;0.56;;;;;;;8.59;66.20;96461.31;88177;224;64004;-59
2023/12/25 01:37:50;;;;;;;0.55;0.55;;;;;;;8.59;66.50;96469.44;29394;197;64009;-57
2023/12/25 01:38:22;;;;;;;0.50;0.50;;;;;;;8.54;66.78;96472.19;29395;231;63005;-57
2023/12/25 01:38:53;;;;;;;0.50;0.50;;;;;;;8.51;66.65;96461.94;29395;206;63009;-57
2023/12/25 01:39:24;;;;;;;0.50;0.50;;;;;;;8.54;66.78;96471.37;29395;391;63005;-58
2023/12/25 01:39:56;;;;;;;0.52;0.52;;;;;;;8.52;66.77;96468.97;29395;307;63009;-55
2023/12/25 01:40:27;;;;;;;0.50;0.50;;;;;;;8.49;66.87;96464.13;29395;202;63005;-56
2023/12/25 01:40:59;;;;;;;0.50;0.50;;;;;;;8.48;67.23;96473.34;29395;212;63009;-57
2023/12/25 01:41:31;;;;;;;0.55;0.55;;;;;;;8.44;66.83;96461.50;29395;249;63004;-56
2023/12/25 01:42:02;;;;;;;0.60;0.60;;;;;;;8.48;66.29;96461.72;29395;210;63009;-57
2023/12/25 01:42:34;;;;;;;0.50;0.50;;;;;;;8.47;66.63;96474.44;29395;219;63004;-56
2023/12/25 01:43:06;;;;;;;0.50;0.50;;;;;;;8.45;66.66;96484.72;29394;252;64013;-57
2023/12/25 01:43:37;;;;;;;0.70;0.70;;;;;;;8.42;66.28;96454.75;29395;231;63004;-57
2023/12/25 01:44:09;;;;;;;0.50;0.50;;;;;;;8.37;66.71;96461.84;29395;226;63008;-57
2023/12/25 01:44:41;;;;;;;0.60;0.60;;;;;;;8.37;67.05;96471.84;29395;203;63005;-56
2023/12/25 01:45:12;;;;;;;0.50;0.50;;;;;;;8.46;66.04;96463.91;29395;199;63009;-57
2023/12/25 01:45:44;;;;;;;0.50;0.50;;;;;;;8.45;66.07;96473.91;29395;207;63005;-56
2023/12/25 01:46:16;;;;;;;0.60;0.60;;;;;;;8.46;65.85;96469.31;29395;256;63026;-56
2023/12/25 01:46:48;;;;;;;0.50;0.50;;;;;;;8.48;66.15;96478.75;29395;216;63005;-57
2023/12/25 01:47:20;;;;;;;0.60;0.60;;;;;;;8.54;65.37;96472.19;29395;246;63009;-63
2023/12/25 01:47:52;;;;;;;0.60;0.60;;;;;;;8.62;64.73;96470.75;29395;230;63005;-58
2023/12/25 01:48:25;;;;;;;0.50;0.50;;;;;;;8.63;65.17;96475.88;29394;199;64013;-59
2023/12/25 01:48:57;;;;;;;0.50;0.50;;;;;;;8.67;64.60;96482.28;29395;211;63004;-65
2023/12/25 01:49:29;;;;;;;0.60;0.60;;;;;;;8.69;64.56;96480.09;29395;212;63009;-62
2023/12/25 01:50:02;;;;;;;0.50;0.50;;;;;;;8.68;64.46;96472.25;29395;228;63009;-56
2023/12/25 01:50:34;;;;;;;0.50;0.50;;;;;;;8.60;64.51;96479.16;29395;207;63023;-56
2023/12/25 01:51:06;;;;;;;0.50;0.50;;;;;;;8.56;64.84;96464.59;29395;202;63004;-57
2023/12/25 01:51:37;;;;;;;0.50;0.50;;;;;;;8.58;65.28;96477.81;29395;257;63008;-58
2023/12/25 01:52:09;;;;;;;0.50;0.50;;;;;;;8.62;65.03;96474.25;29395;230;63005;-55
2023/12/25 01:52:41;;;;;;;0.50;0.50;;;;;;;8.61;64.81;96461.84;29395;210;63009;-54
2023/12/25 01:53:13;;;;;;;0.50;0.50;;;;;;;8.59;65.07;96469.44;29395;310;63005;-55
2023/12/25 01:53:45;;;;;;;0.50;0.50;;;;;;;8.60;64.86;96471.03;29394;363;64013;-56
2023/12/25 01:54:16;;;;;;;0.60;0.60;;;;;;;8.67;65.38;96486.87;29395;267;63009;-57
2023/12/25 01:54:49;;;;;;;0.50;0.50;;;;;;;8.67;64.56;96466.06;29394;214;64013;-55
2023/12/25 01:55:21;;;;;;;0.50;0.50;;;;;;;8.64;64.78;96471.25;29395;234;63004;-55
2023/12/25 01:55:52;;;;;;;0.60;0.60;;;;;;;8.60;65.10;96468.34;29395;258;63009;-55
2023/12/25 01:56:24;;;;;;;0.60;0.60;;;;;;;8.63;64.39;96470.47;29395;238;63015;-56
2023/12/25 01:56:56;;;;;;;0.55;0.55;;;;;;;8.68;64.50;96473.06;29395;198;63009;-62
2023/12/25 01:57:32;;;;;;;0.60;0.60;;;;;;;8.68;63.84;96462.25;29395;228;63007;-61
2023/12/25 01:58:03;;;;;;;0.57;0.57;;;;;;;8.65;64.24;96452.03;29395;210;63008;-57
2023/12/25 01:58:35;;;;;;;0.50;0.50;;;;;;;8.65;64.10;96468.28;29395;216;63005;-58
2023/12/25 01:59:06;;;;;;;0.60;0.60;;;;;;;8.61;64.40;96467.25;29395;215;63009;-55
2023/12/25 01:59:39;;;;;;;0.60;0.60;;;;;;;8.58;65.06;96456.19;29395;222;63005;-58
2023/12/25 02:00:11;;;;;;;0.50;0.50;;;;;;;8.53;64.87;96454.34;29394;260;64013;-56
2023/12/25 02:00:43;;;;;;;0.55;0.55;;;;;;;8.48;65.25;96454.41;29395;293;63005;-56
2023/12/25 02:01:14;;;;;;;0.60;0.60;;;;;;;8.47;65.47;96463.63;29395;209;63009;-56
2023/12/25 02:01:45;;;;;;;0.50;0.50;;;;;;;8.46;65.37;96464.72;29395;238;63005;-57
2023/12/25 02:02:20;;;;;;;0.50;0.50;;;;;;;8.44;65.31;96466.09;29395;198;63009;-57
2023/12/25 02:02:52;;;;;;;0.50;0.50;;;;;;;8.46;65.26;96470.13;29395;220;63004;-59
2023/12/25 02:03:24;;;;;;;0.60;0.60;;;;;;;8.46;64.98;96464.72;29395;365;63009;-56
2023/12/25 02:03:55;;;;;;;0.50;0.50;;;;;;;8.54;64.38;96455.16;29395;260;63004;-55
2023/12/25 02:04:28;;;;;;;0.50;0.50;;;;;;;8.53;64.84;96470.56;29395;254;63009;-56
2023/12/25 02:05:00;;;;;;;0.60;0.60;;;;;;;8.55;64.71;96462.97;29395;223;63004;-57
2023/12/25 02:05:32;;;;;;;0.50;0.50;;;;;;;8.57;64.24;96466.22;29394;290;64013;-55
2023/12/25 02:06:05;;;;;;;0.50;0.50;;;;;;;8.55;64.37;96462.97;29395;208;63005;-56
2023/12/25 02:06:37;;;;;;;0.50;0.50;;;;;;;8.50;65.02;96470.34;29395;289;63009;-55
2023/12/25 02:07:10;;;;;;;0.50;0.50;;;;;;;8.51;64.57;96489.00;29395;218;63005;-60
2023/12/25 02:07:43;;;;;;;0.50;0.50;;;;;;;8.49;64.66;96474.16;29395;202;63009;-56
2023/12/25 02:08:17;;;;;;;0.50;0.50;;;;;;;8.49;65.05;96479.56;29395;227;63005;-56
2023/12/25 02:08:49;;;;;;;0.50;0.50;;;;;;;8.51;64.98;96480.88;29395;202;63017;-56
2023/12/25 02:09:21;;;;;;;0.50;0.50;;;;;;;8.50;64.72;96476.56;29395;321;63005;-55
2023/12/25 02:09:52;;;;;;;0.50;0.50;;;;;;;8.45;65.43;96482.03;29395;292;63009;-56
2023/12/25 02:10:28;;;;;;;0.50;0.50;;;;;;;8.39;65.36;96480.47;29395;198;63004;-57
2023/12/25 02:11:03;;;;;;;0.50;0.50;;;;;;;8.38;65.88;96474.25;29394;196;64013;-56
2023/12/25 02:11:40;;;;;;;0.52;0.52;;;;;;;8.34;65.76;96477.81;29395;254;63004;-56
2023/12/25 02:12:12;;;;;;;0.50;0.50;;;;;;;8.28;66.56;96495.19;29395;226;63019;-57
2023/12/25 02:12:43;;;;;;;0.50;0.50;;;;;;;8.27;66.41;96483.56;29395;245;63004;-56
2023/12/25 02:13:14;;;;;;;0.50;0.50;;;;;;;8.30;66.25;96493.81;29395;385;63008;-57
2023/12/25 02:13:46;;;;;;;0.50;0.50;;;;;;;8.30;66.00;96491.12;29395;199;63005;-55
2023/12/25 02:14:18;;;;;;;0.50;0.50;;;;;;;8.26;65.96;96502.78;29395;257;63009;-55
2023/12/25 02:14:49;;;;;;;0.50;0.50;;;;;;;8.30;65.78;96482.19;29394;208;64009;-56
2023/12/25 02:15:21;;;;;;;0.57;0.57;;;;;;;8.29;65.74;96491.41;29395;244;63009;-58
2023/12/25 02:15:53;;;;;;;0.50;0.50;;;;;;;8.32;65.55;96485.38;29395;237;63005;-56
2023/12/25 02:16:25;;;;;;;0.60;0.60;;;;;;;8.35;65.62;96495.66;29395;208;63009;-63
2023/12/25 02:16:57;;;;;;;0.60;0.60;;;;;;;8.44;64.92;96493.13;29395;250;63005;-60
2023/12/25 02:17:29;;;;;;;0.60;0.60;;;;;;;8.45;64.70;96484.72;29395;265;63009;-56
2023/12/25 02:18:02;;;;;;;0.60;0.60;;;;;;;8.44;64.68;96485.81;29395;266;63004;-56
2023/12/25 02:18:36;;;;;;;0.50;0.50;;;;;;;8.43;65.08;96496.94;29395;244;63009;-57
2023/12/25 02:19:22;;;;;;;0.60;0.60;;;;;;;8.40;65.12;96482.09;29395;199;63004;-56
2023/12/25 02:19:54;;;;;;;0.50;0.50;;;;;;;8.37;65.24;96498.88;29394;257;64013;-56
2023/12/25 02:20:26;;;;;;;0.50;0.50;;;;;;;8.44;64.47;96493.94;29395;229;63004;-59
2023/12/25 02:20:58;;;;;;;0.70;0.70;;;;;;;8.48;64.37;96473.34;29395;198;63017;-56
2023/12/25 02:21:29;;;;;;;0.60;0.60;;;;;;;8.55;63.79;96484.63;29395;254;63005;-57
2023/12/25 02:22:01;;;;;;;0.60;0.60;;;;;;;8.56;63.75;96480.81;29395;197;63009;-56
2023/12/25 02:22:33;;;;;;;0.50;0.50;;;;;;;8.58;63.94;96489.44;29395;259;63005;-57
2023/12/25 02:23:08;;;;;;;0.50;0.50;;;;;;;8.55;63.97;96483.81;29395;216;63009;-57
2023/12/25 02:23:45;;;;;;;0.50;0.50;;;;;;;8.54;63.86;96477.59;29395;229;63005;-56
2023/12/25 02:24:23;;;;;;;0.50;0.50;;;;;;;8.48;64.39;96476.03;29395;231;63012;-56
2023/12/25 02:25:03;;;;;;;0.50;0.50;;;;;;;8.49;64.14;96479.56;29394;225;64009;-57
2023/12/25 02:25:37;;;;;;;0.50;0.50;;;;;;;8.49;64.11;96479.56;29395;264;63016;-57
2023/12/25 02:26:09;;;;;;;0.57;0.57;;;;;;;8.42;65.26;96484.50;29395;215;63004;-56
2023/12/25 02:26:41;;;;;;;0.60;0.60;;;;;;;8.43;64.79;96480.72;29395;198;63009;-59
2023/12/25 02:27:12;;;;;;;0.57;0.57;;;;;;;8.49;64.21;96472.25;29395;240;63017;-57
2023/12/25 02:27:44;;;;;;;0.50;0.50;;;;;;;8.50;63.98;96473.06;29395;253;63008;-67
2023/12/25 02:28:15;;;;;;;0.60;0.60;;;;;;;8.53;63.60;96470.56;29395;196;63004;-56
2023/12/25 02:28:47;;;;;;;0.50;0.50;;;;;;;8.46;65.06;96469.31;29395;213;63009;-56
2023/12/25 02:29:18;;;;;;;0.50;0.50;;;;;;;8.41;64.93;96483.69;29395;302;63005;-57
2023/12/25 02:29:50;;;;;;;0.50;0.50;;;;;;;8.40;64.85;96484.78;29395;246;63019;-55
2023/12/25 02:30:22;;;;;;;0.50;0.50;;;;;;;8.40;64.74;96499.12;29394;414;64009;-71
2023/12/25 02:30:53;;;;;;;0.50;0.50;;;;;;;8.42;64.43;96485.31;29395;207;63016;-57
2023/12/25 02:31:25;;;;;;;0.50;0.50;;;;;;;8.43;64.29;96476.09;29395;240;63005;-56
2023/12/25 02:31:56;;;;;;;0.60;0.60;;;;;;;8.43;63.97;96478.81;29395;343;63021;-58
2023/12/25 02:32:31;;;;;;;0.60;0.60;;;;;;;8.43;64.10;96480.72;29395;245;63004;-56
2023/12/25 02:33:04;;;;;;;0.50;0.50;;;;;;;8.44;64.21;96488.53;29395;224;63009;-57
2023/12/25 02:33:35;;;;;;;0.50;0.50;;;;;;;8.42;64.18;96488.00;29395;212;63008;-56
2023/12/25 02:34:07;;;;;;;0.50;0.50;;;;;;;8.38;64.67;96474.25;29395;210;63009;-55
2023/12/25 02:34:39;;;;;;;0.52;0.52;;;;;;;8.36;64.69;96484.56;29395;254;63007;-56
2023/12/25 02:35:12;;;;;;;0.50;0.50;;;;;;;8.35;64.53;96490.25;29395;362;63008;-57